Flight Track Log - Related Links

Times and Time Zones

All times are in EDT time to prevent confusion due to time zone crossing. See the UAL1509 flight status page for this flight to view local times or setup timezone preferences in your user account.

Time Position Orientation Groundspeed Altitude Reporting Facility
EDT Latitude Longitude Course Direction KTS MPH feet Rate Location/Type
Mon 12:49:09 PM 29.9639 -95.3433 147° Southeast 165 190 800  Level Houston Center
Mon 12:49:52 PM 29.9353 -95.3081 133° Southeast 221 254 2,500 1,829 Climbing Houston Center
Mon 12:50:54 PM 29.8919 -95.2483 130° Southeast 256 295 4,000 1,084 Climbing Houston Center
Mon 12:51:15 PM 29.8844 -95.2358 125° Southeast 231 266 4,000  Level Houston Center
Mon 12:52:01 PM 29.8392 -95.1753 131° Southeast 260 299 4,000  Level Houston Center
Mon 12:52:17 PM 29.8372 -95.1706 115° Southeast 250 288 4,000 873 Level Houston Center
Mon 12:52:56 PM 29.7844 -95.1314 147° Southeast 264 304 4,800 1,839 Climbing Houston Center
Mon 12:53:00 PM 29.4288 -94.9763 151° Southeast  Level FlightAware Approximate
Mon 12:53:19 PM 29.7622 -95.1189 154° Southeast 268 308 5,900  Level Houston Center
Mon 12:54:00 PM 29.3176 -94.9048 147° Southeast  Level FlightAware Approximate
Mon 12:54:22 PM 29.6864 -95.0794 156° South 289 333 8,400  Level Houston Center
Mon 12:55:24 PM 29.5953 -95.0339 157° South 339 390 10,600 2,371 Climbing Houston Center
Mon 12:56:26 PM 29.4906 -94.9800 156° South 403 464 13,300 2,758 Climbing Houston Center
Mon 12:57:28 PM 29.3856 -94.9267 156° South 408 470 16,300 2,468 Climbing Houston Center
Mon 12:58:30 PM 29.2761 -94.8706 156° South 426 490 18,400 2,226 Climbing Houston Center
Mon 12:59:32 PM 29.1683 -94.7997 150° Southeast 443 510 20,900 2,177 Climbing Houston Center
Mon 01:00:34 PM 29.0558 -94.7297 151° Southeast 456 525 22,900 2,081 Climbing Houston Center
Mon 01:01:36 PM 28.9075 -94.6731 162° South 465 535 25,200 1,984 Climbing Houston Center
Mon 01:02:38 PM 28.7831 -94.6231 161° South 472 543 27,000 1,440 Climbing Houston Center
Mon 01:03:41 PM 28.6539 -94.5742 162° South 485 558 28,200 1,200 Climbing Houston Center
Mon 01:04:43 PM 28.5231 -94.5236 161° South 495 570 29,500 1,355 Climbing Houston Center
Mon 01:05:45 PM 28.3903 -94.4717 161° South 501 577 31,000 1,258 Climbing Houston Center
Mon 01:06:47 PM 28.2575 -94.4211 161° South 502 578 32,100 1,403 Climbing Houston Center
Mon 01:07:49 PM 28.0964 -94.3592 161° South 508 585 33,900 1,548 Climbing Houston Center
Mon 01:08:51 PM 27.9661 -94.3075 161° South 498 573 35,300 1,113 Climbing Houston Center
Mon 01:09:53 PM 27.8353 -94.2589 162° South 496 571 36,200 774 Climbing Houston Center
Mon 01:10:55 PM 27.7036 -94.2081 161° South 500 575 36,900 336 Climbing Houston Center
Mon 01:11:58 PM 27.5714 -94.1581 161° South 500 575 36,900  Level Houston Center
Mon 01:13:00 PM 27.4131 -94.0972 161° South 499 574 36,900  Level Houston Center
Mon 01:14:02 PM 27.2808 -94.0481 162° South 499 574 36,900  Level Houston Center
Mon 01:15:04 PM 27.1500 -93.9972 161° South 498 573 36,900  Level Houston Center
Mon 01:16:06 PM 27.0178 -93.9483 162° South 498 573 36,900  Level Houston Center
Mon 01:17:08 PM 26.8844 -93.8992 162° South 504 580 36,900  Level Houston Center
Mon 01:18:10 PM 26.7514 -93.8486 161° South 504 580 36,900  Level Houston Center
Mon 01:19:12 PM 26.6017 -93.7922 161° South 507 583 36,900  Level Houston Center
Mon 01:20:15 PM 26.4708 -93.7314 157° South 508 585 36,900  Level Houston Center
Mon 01:21:17 PM 26.3431 -93.6614 154° Southeast 507 583 36,900  Level Houston Center
Mon 01:22:19 PM 26.2158 -93.5800 150° Southeast 511 588 36,900  Level Houston Center
Mon 01:24:00 PM 26.0219 -93.4567 150° Southeast  Level FlightAware Approximate
Mon 01:31:00 PM 25.2105 -92.9558 153° Southeast  Level FlightAware Approximate
Mon 01:32:00 PM 25.0937 -92.8864 152° Southeast  Level FlightAware Approximate
Mon 01:33:00 PM 24.9770 -92.8167 152° Southeast  Level FlightAware Approximate
Mon 01:34:00 PM 24.8603 -92.7471 152° Southeast  Level FlightAware Approximate
Mon 01:35:00 PM 24.7436 -92.6777 152° Southeast  Level FlightAware Approximate
Mon 01:36:00 PM 24.6268 -92.6084 152° Southeast  Level FlightAware Approximate
Mon 01:37:00 PM 24.5100 -92.5393 152° Southeast  Level FlightAware Approximate
Mon 01:38:00 PM 24.3879 -92.4824 158° South  Level FlightAware Approximate
Mon 01:39:00 PM 24.2653 -92.4269 158° South  Level FlightAware Approximate
Mon 01:40:00 PM 24.1426 -92.3714 158° South  Level FlightAware Approximate
Mon 01:41:00 PM 24.0200 -92.3161 158° South  Level FlightAware Approximate
Mon 01:42:00 PM 23.8973 -92.2608 158° South  Level FlightAware Approximate
Mon 01:43:00 PM 23.7746 -92.2057 158° South  Level FlightAware Approximate
Mon 01:44:00 PM 23.6519 -92.1507 158° South  Level FlightAware Approximate
Mon 01:45:00 PM 23.5291 -92.0958 158° South  Level FlightAware Approximate
Mon 01:46:00 PM 23.4064 -92.0409 158° South  Level FlightAware Approximate
Mon 01:47:00 PM 23.2836 -91.9862 158° South  Level FlightAware Approximate
Mon 01:48:00 PM 23.1608 -91.9316 158° South  Level FlightAware Approximate
Mon 01:49:00 PM 23.0380 -91.8771 158° South  Level FlightAware Approximate
Mon 01:50:00 PM 22.9151 -91.8227 158° South  Level FlightAware Approximate
Mon 01:51:00 PM 22.7923 -91.7683 158° South  Level FlightAware Approximate
Mon 01:52:00 PM 22.6694 -91.7141 158° South  Level FlightAware Approximate
Mon 01:53:00 PM 22.5465 -91.6600 158° South  Level FlightAware Approximate
Mon 01:54:00 PM 22.4236 -91.6059 158° South  Level FlightAware Approximate
Mon 01:55:00 PM 22.3007 -91.5520 158° South  Level FlightAware Approximate
Mon 01:56:00 PM 22.1777 -91.4982 158° South  Level FlightAware Approximate
Mon 01:57:00 PM 22.0548 -91.4444 158° South  Level FlightAware Approximate
Mon 01:58:00 PM 21.9318 -91.3907 158° South  Level FlightAware Approximate
Mon 01:59:00 PM 21.8088 -91.3372 158° South  Level FlightAware Approximate
Mon 02:00:00 PM 21.6858 -91.2837 158° South  Level FlightAware Approximate
Mon 02:01:00 PM 21.5627 -91.2303 158° South  Level FlightAware Approximate
Mon 02:02:00 PM 21.4397 -91.1770 158° South  Level FlightAware Approximate
Mon 02:03:00 PM 21.3166 -91.1238 158° South  Level FlightAware Approximate
Mon 02:04:00 PM 21.1931 -91.0718 159° South  Level FlightAware Approximate
Mon 02:05:00 PM 21.0695 -91.0200 159° South  Level FlightAware Approximate
Mon 02:06:00 PM 20.9460 -90.9683 159° South  Level FlightAware Approximate
Mon 02:07:00 PM 20.8224 -90.9167 159° South  Level FlightAware Approximate
Mon 02:08:00 PM 20.6988 -90.8652 159° South  Level FlightAware Approximate
Mon 02:09:00 PM 20.5752 -90.8137 159° South  Level FlightAware Approximate
Mon 02:10:00 PM 20.4515 -90.7624 159° South  Level FlightAware Approximate
Mon 02:11:00 PM 20.3279 -90.7111 159° South  Level FlightAware Approximate
Mon 02:12:00 PM 20.2042 -90.6599 159° South  Level FlightAware Approximate
Mon 02:13:00 PM 20.0805 -90.6088 159° South  Level FlightAware Approximate
Mon 02:14:00 PM 19.9569 -90.5577 159° South  Level FlightAware Approximate
Mon 02:15:00 PM 19.8331 -90.5068 159° South  Level FlightAware Approximate
Mon 02:16:00 PM 19.7037 -90.4773 169° South  Level FlightAware Approximate
Mon 02:17:00 PM 19.5733 -90.4512 169° South  Level FlightAware Approximate
Mon 02:18:00 PM 19.4429 -90.4251 169° South  Level FlightAware Approximate
Mon 02:19:00 PM 19.3126 -90.3991 169° South  Level FlightAware Approximate
Mon 02:20:00 PM 19.1822 -90.3731 169° South  Level FlightAware Approximate
Mon 02:21:00 PM 19.0518 -90.3471 169° South  Level FlightAware Approximate
Mon 02:22:00 PM 18.9214 -90.3212 169° South  Level FlightAware Approximate
Mon 02:23:00 PM 18.7910 -90.2954 169° South  Level FlightAware Approximate
Mon 02:24:00 PM 18.6607 -90.2695 169° South  Level FlightAware Approximate
Mon 02:25:00 PM 18.5303 -90.2437 169° South  Level FlightAware Approximate
Mon 02:26:00 PM 18.3999 -90.2180 169° South  Level FlightAware Approximate
Mon 02:27:00 PM 18.2695 -90.1923 169° South  Level FlightAware Approximate
Mon 02:28:00 PM 18.1391 -90.1666 169° South  Level FlightAware Approximate
Mon 02:29:00 PM 18.0087 -90.1409 169° South  Level FlightAware Approximate
Mon 02:30:00 PM 17.8783 -90.1153 169° South  Level FlightAware Approximate
Mon 02:31:00 PM 17.7469 -90.1000 180° South  Level FlightAware Approximate
Mon 02:32:00 PM 17.6150 -90.1136 186° South  Level FlightAware Approximate
Mon 02:33:00 PM 17.4831 -90.1286 186° South  Level FlightAware Approximate
Mon 02:34:00 PM 17.3512 -90.1437 186° South  Level FlightAware Approximate
Mon 02:35:00 PM 17.2193 -90.1588 186° South  Level FlightAware Approximate
Mon 02:36:00 PM 17.0880 -90.1779 190° South  Level FlightAware Approximate
Mon 02:37:00 PM 16.9572 -90.2000 180° South  Level FlightAware Approximate
Mon 02:38:00 PM 16.8252 -90.2115 187° South  Level FlightAware Approximate
Mon 02:39:00 PM 16.6934 -90.2279 187° South  Level FlightAware Approximate
Mon 02:40:00 PM 16.5617 -90.2444 187° South  Level FlightAware Approximate
Mon 02:41:00 PM 16.4309 -90.2670 187° South  Level FlightAware Approximate
Mon 02:42:00 PM 16.2992 -90.2834 186° South  Level FlightAware Approximate
Mon 02:43:00 PM 16.1673 -90.2981 186° South  Level FlightAware Approximate
Mon 02:44:00 PM 16.0363 -90.3201 190° South  Level FlightAware Approximate
Mon 02:45:00 PM 15.9055 -90.3431 190° South  Level FlightAware Approximate
Mon 02:46:00 PM 15.7740 -90.3609 186° South  Level FlightAware Approximate
Mon 02:47:00 PM 15.6422 -90.3764 186° South  Level FlightAware Approximate
Mon 02:48:00 PM 15.5106 -90.3937 188° South  Level FlightAware Approximate
Mon 02:49:00 PM 15.3792 -90.4125 188° South  Level FlightAware Approximate
Mon 02:50:00 PM 15.2473 -90.4269 186° South  Level FlightAware Approximate
Mon 02:51:00 PM 15.1159 -90.4456 190° South  Level FlightAware Approximate
Mon 02:52:00 PM 14.9850 -90.4667 180° South  Level FlightAware Approximate
Mon 02:53:00 PM 14.8539 -90.4779 186° South  Level FlightAware Approximate
Mon 02:54:00 PM 14.7253 -90.4957 206° Southwest  Level FlightAware Approximate
Mon 02:55:00 PM 14.5957 -90.5094 194° South  Level FlightAware Approximate
Mon 02:56:00 PM 14.5833 -90.5275 194° South  Level Estimated
Mon 02:57:00 PM 14.5833 -90.5275 194° South  Level Estimated
Mon 02:58:00 PM 14.5833 -90.5275 194° South  Level Estimated
Mon 02:59:00 PM 14.5833 -90.5275 194° South  Level Estimated
Mon 03:00:00 PM 14.5833 -90.5275 194° South  Level Estimated
Mon 03:01:00 PM 14.5833 -90.5275 194° South  Level Estimated
Mon 03:02:00 PM 14.5833 -90.5275 194° South  Level Estimated

Login

Don't have an account? Register now (free) for customized features, flight alerts, and more!